sensor_id;sensor_type;location;lat;lon;timestamp;P1;durP1;ratioP1;P2;durP2;ratioP2
71125;SDS011;58785;55.566;38.058;2022-11-20T00:02:15;6.17;;;2.07;;
71125;SDS011;58785;55.566;38.058;2022-11-20T00:04:41;10.40;;;2.87;;
71125;SDS011;58785;55.566;38.058;2022-11-20T00:07:06;7.95;;;2.70;;
71125;SDS011;58785;55.566;38.058;2022-11-20T00:09:32;9.60;;;3.37;;
71125;SDS011;58785;55.566;38.058;2022-11-20T00:11:57;8.13;;;2.63;;
71125;SDS011;58785;55.566;38.058;2022-11-20T00:14:23;9.65;;;3.42;;
71125;SDS011;58785;55.566;38.058;2022-11-20T00:16:48;8.07;;;2.53;;
71125;SDS011;58785;55.566;38.058;2022-11-20T00:19:14;9.57;;;3.03;;
71125;SDS011;58785;55.566;38.058;2022-11-20T00:21:40;8.93;;;3.07;;
71125;SDS011;58785;55.566;38.058;2022-11-20T00:24:05;10.73;;;3.50;;
71125;SDS011;58785;55.566;38.058;2022-11-20T00:26:34;9.45;;;3.40;;
71125;SDS011;58785;55.566;38.058;2022-11-20T00:29:00;10.67;;;3.13;;
71125;SDS011;58785;55.566;38.058;2022-11-20T00:31:26;12.45;;;3.53;;
71125;SDS011;58785;55.566;38.058;2022-11-20T00:33:52;7.18;;;3.03;;
71125;SDS011;58785;55.566;38.058;2022-11-20T00:36:22;9.33;;;3.27;;
71125;SDS011;58785;55.566;38.058;2022-11-20T00:38:56;9.65;;;3.20;;
71125;SDS011;58785;55.566;38.058;2022-11-20T00:41:23;9.52;;;3.25;;
71125;SDS011;58785;55.566;38.058;2022-11-20T00:43:50;7.75;;;2.63;;
71125;SDS011;58785;55.566;38.058;2022-11-20T00:46:18;10.35;;;3.13;;
71125;SDS011;58785;55.566;38.058;2022-11-20T00:48:45;10.47;;;3.07;;
71125;SDS011;58785;55.566;38.058;2022-11-20T00:51:12;10.88;;;3.00;;
71125;SDS011;58785;55.566;38.058;2022-11-20T00:53:39;7.88;;;2.70;;
71125;SDS011;58785;55.566;38.058;2022-11-20T00:56:05;7.73;;;2.40;;
71125;SDS011;58785;55.566;38.058;2022-11-20T00:58:33;8.85;;;2.75;;
71125;SDS011;58785;55.566;38.058;2022-11-20T01:01:07;8.63;;;2.47;;
71125;SDS011;58785;55.566;38.058;2022-11-20T01:03:34;10.50;;;2.10;;
71125;SDS011;58785;55.566;38.058;2022-11-20T01:06:01;7.63;;;2.17;;
71125;SDS011;58785;55.566;38.058;2022-11-20T01:08:29;5.00;;;1.10;;
71125;SDS011;58785;55.566;38.058;2022-11-20T01:10:59;8.75;;;2.65;;
71125;SDS011;58785;55.566;38.058;2022-11-20T01:13:32;7.03;;;2.45;;
71125;SDS011;58785;55.566;38.058;2022-11-20T01:16:18;7.97;;;2.10;;
71125;SDS011;58785;55.566;38.058;2022-11-20T01:18:46;5.45;;;1.77;;
71125;SDS011;58785;55.566;38.058;2022-11-20T01:21:16;9.83;;;2.87;;
71125;SDS011;58785;55.566;38.058;2022-11-20T01:23:52;7.00;;;2.08;;
71125;SDS011;58785;55.566;38.058;2022-11-20T01:26:19;8.63;;;2.17;;
71125;SDS011;58785;55.566;38.058;2022-11-20T01:28:47;6.90;;;2.10;;
71125;SDS011;58785;55.566;38.058;2022-11-20T01:31:20;7.50;;;2.33;;
71125;SDS011;58785;55.566;38.058;2022-11-20T01:33:51;11.07;;;2.95;;
71125;SDS011;58785;55.566;38.058;2022-11-20T01:36:19;8.75;;;2.60;;
71125;SDS011;58785;55.566;38.058;2022-11-20T01:38:46;10.52;;;2.78;;
71125;SDS011;58785;55.566;38.058;2022-11-20T01:41:13;9.07;;;2.57;;
71125;SDS011;58785;55.566;38.058;2022-11-20T01:44:00;7.03;;;1.70;;
71125;SDS011;58785;55.566;38.058;2022-11-20T01:46:26;7.75;;;2.00;;
71125;SDS011;58785;55.566;38.058;2022-11-20T01:51:30;8.43;;;1.90;;
71125;SDS011;58785;55.566;38.058;2022-11-20T01:54:05;7.07;;;2.20;;
71125;SDS011;58785;55.566;38.058;2022-11-20T01:56:34;7.75;;;2.38;;
71125;SDS011;58785;55.566;38.058;2022-11-20T01:59:03;5.82;;;1.70;;
71125;SDS011;58785;55.566;38.058;2022-11-20T02:01:31;6.28;;;1.70;;
71125;SDS011;58785;55.566;38.058;2022-11-20T02:03:57;5.37;;;1.27;;
71125;SDS011;58785;55.566;38.058;2022-11-20T02:06:30;8.13;;;2.08;;
71125;SDS011;58785;55.566;38.058;2022-11-20T02:09:01;6.57;;;1.75;;
71125;SDS011;58785;55.566;38.058;2022-11-20T02:11:28;7.10;;;1.90;;
71125;SDS011;58785;55.566;38.058;2022-11-20T02:13:55;6.50;;;2.05;;
71125;SDS011;58785;55.566;38.058;2022-11-20T02:16:28;7.60;;;2.27;;
71125;SDS011;58785;55.566;38.058;2022-11-20T02:18:59;9.23;;;2.78;;
71125;SDS011;58785;55.566;38.058;2022-11-20T02:24:26;7.03;;;1.85;;
71125;SDS011;58785;55.566;38.058;2022-11-20T02:26:53;7.50;;;2.30;;
71125;SDS011;58785;55.566;38.058;2022-11-20T02:29:25;8.02;;;2.60;;
71125;SDS011;58785;55.566;38.058;2022-11-20T02:31:53;9.23;;;2.33;;
71125;SDS011;58785;55.566;38.058;2022-11-20T02:34:20;7.80;;;2.05;;
71125;SDS011;58785;55.566;38.058;2022-11-20T02:36:46;9.90;;;2.47;;
71125;SDS011;58785;55.566;38.058;2022-11-20T02:39:12;6.88;;;2.35;;
71125;SDS011;58785;55.566;38.058;2022-11-20T02:41:41;7.80;;;2.40;;
71125;SDS011;58785;55.566;38.058;2022-11-20T02:44:07;6.80;;;1.63;;
71125;SDS011;58785;55.566;38.058;2022-11-20T02:46:33;9.68;;;2.10;;
71125;SDS011;58785;55.566;38.058;2022-11-20T02:49:00;7.20;;;1.95;;
71125;SDS011;58785;55.566;38.058;2022-11-20T02:51:26;9.47;;;2.43;;
71125;SDS011;58785;55.566;38.058;2022-11-20T02:53:52;8.82;;;2.78;;
71125;SDS011;58785;55.566;38.058;2022-11-20T02:56:17;8.27;;;1.70;;
71125;SDS011;58785;55.566;38.058;2022-11-20T02:58:43;7.38;;;1.90;;
71125;SDS011;58785;55.566;38.058;2022-11-20T03:01:09;7.97;;;2.07;;
71125;SDS011;58785;55.566;38.058;2022-11-20T03:03:35;10.05;;;2.05;;
71125;SDS011;58785;55.566;38.058;2022-11-20T03:06:00;7.80;;;2.53;;
71125;SDS011;58785;55.566;38.058;2022-11-20T03:08:26;7.35;;;2.22;;
71125;SDS011;58785;55.566;38.058;2022-11-20T03:10:51;8.50;;;1.77;;
71125;SDS011;58785;55.566;38.058;2022-11-20T03:13:17;8.15;;;1.35;;
71125;SDS011;58785;55.566;38.058;2022-11-20T03:15:42;6.60;;;2.07;;
71125;SDS011;58785;55.566;38.058;2022-11-20T03:18:08;6.57;;;1.67;;
71125;SDS011;58785;55.566;38.058;2022-11-20T03:20:34;5.95;;;1.98;;
71125;SDS011;58785;55.566;38.058;2022-11-20T03:23:00;6.57;;;2.10;;
71125;SDS011;58785;55.566;38.058;2022-11-20T03:25:25;9.35;;;2.65;;
71125;SDS011;58785;55.566;38.058;2022-11-20T03:27:51;6.97;;;2.10;;
71125;SDS011;58785;55.566;38.058;2022-11-20T03:30:17;7.87;;;2.03;;
71125;SDS011;58785;55.566;38.058;2022-11-20T03:32:43;10.25;;;2.42;;
71125;SDS011;58785;55.566;38.058;2022-11-20T03:35:09;8.10;;;1.67;;
71125;SDS011;58785;55.566;38.058;2022-11-20T03:37:34;6.27;;;1.80;;
71125;SDS011;58785;55.566;38.058;2022-11-20T03:40:00;8.90;;;2.30;;
71125;SDS011;58785;55.566;38.058;2022-11-20T03:42:26;7.97;;;1.83;;
71125;SDS011;58785;55.566;38.058;2022-11-20T03:45:10;8.30;;;2.55;;
71125;SDS011;58785;55.566;38.058;2022-11-20T03:47:36;10.23;;;2.00;;
71125;SDS011;58785;55.566;38.058;2022-11-20T03:50:01;7.70;;;2.22;;
71125;SDS011;58785;55.566;38.058;2022-11-20T03:52:28;5.77;;;1.57;;
71125;SDS011;58785;55.566;38.058;2022-11-20T03:54:54;4.88;;;1.45;;
71125;SDS011;58785;55.566;38.058;2022-11-20T03:57:19;6.27;;;1.70;;
71125;SDS011;58785;55.566;38.058;2022-11-20T03:59:45;6.20;;;1.70;;
71125;SDS011;58785;55.566;38.058;2022-11-20T04:02:10;5.97;;;1.93;;
71125;SDS011;58785;55.566;38.058;2022-11-20T04:04:36;6.90;;;2.00;;
71125;SDS011;58785;55.566;38.058;2022-11-20T04:07:01;6.67;;;2.20;;
71125;SDS011;58785;55.566;38.058;2022-11-20T04:09:27;9.60;;;2.60;;
71125;SDS011;58785;55.566;38.058;2022-11-20T04:11:53;9.83;;;2.30;;
71125;SDS011;58785;55.566;38.058;2022-11-20T04:14:18;8.07;;;2.53;;
71125;SDS011;58785;55.566;38.058;2022-11-20T04:16:44;7.53;;;2.50;;
71125;SDS011;58785;55.566;38.058;2022-11-20T04:19:10;7.78;;;2.55;;
71125;SDS011;58785;55.566;38.058;2022-11-20T04:21:38;9.77;;;2.83;;
71125;SDS011;58785;55.566;38.058;2022-11-20T04:24:03;8.98;;;2.58;;
71125;SDS011;58785;55.566;38.058;2022-11-20T04:26:29;10.57;;;3.40;;
71125;SDS011;58785;55.566;38.058;2022-11-20T04:28:56;8.45;;;2.50;;
71125;SDS011;58785;55.566;38.058;2022-11-20T04:31:23;8.27;;;2.42;;
71125;SDS011;58785;55.566;38.058;2022-11-20T04:33:50;8.48;;;3.00;;
71125;SDS011;58785;55.566;38.058;2022-11-20T04:36:17;10.40;;;2.90;;
71125;SDS011;58785;55.566;38.058;2022-11-20T04:38:44;8.75;;;3.10;;
71125;SDS011;58785;55.566;38.058;2022-11-20T04:41:17;9.32;;;3.00;;
71125;SDS011;58785;55.566;38.058;2022-11-20T04:43:47;9.70;;;2.90;;
71125;SDS011;58785;55.566;38.058;2022-11-20T04:46:14;9.23;;;3.00;;
71125;SDS011;58785;55.566;38.058;2022-11-20T04:48:40;6.93;;;2.30;;
71125;SDS011;58785;55.566;38.058;2022-11-20T04:51:05;8.02;;;2.13;;
71125;SDS011;58785;55.566;38.058;2022-11-20T04:53:31;7.50;;;1.97;;
71125;SDS011;58785;55.566;38.058;2022-11-20T04:56:01;9.70;;;2.55;;
71125;SDS011;58785;55.566;38.058;2022-11-20T04:58:28;9.98;;;2.65;;
71125;SDS011;58785;55.566;38.058;2022-11-20T05:01:17;8.88;;;2.28;;
71125;SDS011;58785;55.566;38.058;2022-11-20T05:03:43;9.88;;;2.55;;
71125;SDS011;58785;55.566;38.058;2022-11-20T05:06:10;6.43;;;2.17;;
71125;SDS011;58785;55.566;38.058;2022-11-20T05:08:37;11.43;;;3.05;;
71125;SDS011;58785;55.566;38.058;2022-11-20T05:11:03;7.07;;;2.65;;
71125;SDS011;58785;55.566;38.058;2022-11-20T05:13:31;10.02;;;3.00;;
71125;SDS011;58785;55.566;38.058;2022-11-20T05:16:07;7.87;;;2.50;;
71125;SDS011;58785;55.566;38.058;2022-11-20T05:18:35;7.88;;;2.75;;
71125;SDS011;58785;55.566;38.058;2022-11-20T05:21:01;8.15;;;2.15;;
71125;SDS011;58785;55.566;38.058;2022-11-20T05:23:28;9.73;;;2.83;;
71125;SDS011;58785;55.566;38.058;2022-11-20T05:25:55;9.27;;;2.65;;
71125;SDS011;58785;55.566;38.058;2022-11-20T05:28:22;11.68;;;2.75;;
71125;SDS011;58785;55.566;38.058;2022-11-20T05:30:48;6.88;;;2.05;;
71125;SDS011;58785;55.566;38.058;2022-11-20T05:33:14;9.63;;;3.50;;
71125;SDS011;58785;55.566;38.058;2022-11-20T05:35:40;8.67;;;2.10;;
71125;SDS011;58785;55.566;38.058;2022-11-20T05:38:05;10.10;;;3.10;;
71125;SDS011;58785;55.566;38.058;2022-11-20T05:40:31;7.97;;;2.60;;
71125;SDS011;58785;55.566;38.058;2022-11-20T05:42:57;8.68;;;3.20;;
71125;SDS011;58785;55.566;38.058;2022-11-20T05:45:22;7.73;;;1.93;;
71125;SDS011;58785;55.566;38.058;2022-11-20T05:47:48;7.80;;;2.30;;
71125;SDS011;58785;55.566;38.058;2022-11-20T05:50:13;9.50;;;2.83;;
71125;SDS011;58785;55.566;38.058;2022-11-20T05:52:39;11.30;;;2.67;;
71125;SDS011;58785;55.566;38.058;2022-11-20T05:55:06;7.35;;;2.40;;
71125;SDS011;58785;55.566;38.058;2022-11-20T05:57:32;9.15;;;3.28;;
71125;SDS011;58785;55.566;38.058;2022-11-20T05:59:57;7.97;;;2.53;;
71125;SDS011;58785;55.566;38.058;2022-11-20T06:02:23;10.00;;;3.65;;
71125;SDS011;58785;55.566;38.058;2022-11-20T06:04:49;8.40;;;2.37;;
71125;SDS011;58785;55.566;38.058;2022-11-20T06:07:14;7.60;;;2.43;;
71125;SDS011;58785;55.566;38.058;2022-11-20T06:09:40;8.55;;;2.95;;
71125;SDS011;58785;55.566;38.058;2022-11-20T06:12:05;10.37;;;3.10;;
71125;SDS011;58785;55.566;38.058;2022-11-20T06:14:32;8.95;;;2.70;;
71125;SDS011;58785;55.566;38.058;2022-11-20T06:16:57;9.57;;;3.13;;
71125;SDS011;58785;55.566;38.058;2022-11-20T06:19:23;8.80;;;2.67;;
71125;SDS011;58785;55.566;38.058;2022-11-20T06:21:48;11.37;;;3.50;;
71125;SDS011;58785;55.566;38.058;2022-11-20T06:24:15;9.38;;;3.28;;
71125;SDS011;58785;55.566;38.058;2022-11-20T06:26:40;9.02;;;3.20;;
71125;SDS011;58785;55.566;38.058;2022-11-20T06:29:06;11.30;;;3.00;;
71125;SDS011;58785;55.566;38.058;2022-11-20T06:31:32;9.73;;;2.67;;
71125;SDS011;58785;55.566;38.058;2022-11-20T06:34:05;11.30;;;2.93;;
71125;SDS011;58785;55.566;38.058;2022-11-20T06:36:31;10.30;;;3.00;;
71125;SDS011;58785;55.566;38.058;2022-11-20T06:38:57;9.45;;;2.70;;
71125;SDS011;58785;55.566;38.058;2022-11-20T06:41:24;8.73;;;2.78;;
71125;SDS011;58785;55.566;38.058;2022-11-20T06:43:50;8.73;;;2.67;;
71125;SDS011;58785;55.566;38.058;2022-11-20T06:46:16;16.30;;;3.90;;
71125;SDS011;58785;55.566;38.058;2022-11-20T06:48:43;10.75;;;3.83;;
71125;SDS011;58785;55.566;38.058;2022-11-20T06:51:09;9.95;;;3.05;;
71125;SDS011;58785;55.566;38.058;2022-11-20T06:53:35;9.27;;;3.70;;
71125;SDS011;58785;55.566;38.058;2022-11-20T06:56:01;10.37;;;3.07;;
71125;SDS011;58785;55.566;38.058;2022-11-20T06:58:27;9.88;;;3.08;;
71125;SDS011;58785;55.566;38.058;2022-11-20T07:00:57;12.50;;;3.60;;
71125;SDS011;58785;55.566;38.058;2022-11-20T07:03:27;10.52;;;3.10;;
71125;SDS011;58785;55.566;38.058;2022-11-20T07:05:56;8.87;;;2.63;;
71125;SDS011;58785;55.566;38.058;2022-11-20T07:08:23;11.18;;;3.22;;
71125;SDS011;58785;55.566;38.058;2022-11-20T07:10:49;11.80;;;3.70;;
71125;SDS011;58785;55.566;38.058;2022-11-20T07:13:14;9.87;;;2.83;;
71125;SDS011;58785;55.566;38.058;2022-11-20T07:15:40;8.98;;;3.40;;
71125;SDS011;58785;55.566;38.058;2022-11-20T07:18:06;12.43;;;3.77;;
71125;SDS011;58785;55.566;38.058;2022-11-20T07:20:31;11.57;;;3.90;;
71125;SDS011;58785;55.566;38.058;2022-11-20T07:22:57;10.90;;;3.75;;
71125;SDS011;58785;55.566;38.058;2022-11-20T07:25:23;11.82;;;3.78;;
71125;SDS011;58785;55.566;38.058;2022-11-20T07:27:56;10.17;;;3.33;;
71125;SDS011;58785;55.566;38.058;2022-11-20T07:30:22;11.00;;;3.35;;
71125;SDS011;58785;55.566;38.058;2022-11-20T07:32:51;11.33;;;3.50;;
71125;SDS011;58785;55.566;38.058;2022-11-20T07:35:17;9.30;;;2.83;;
71125;SDS011;58785;55.566;38.058;2022-11-20T07:37:43;9.40;;;3.35;;
71125;SDS011;58785;55.566;38.058;2022-11-20T07:40:11;10.70;;;3.60;;
71125;SDS011;58785;55.566;38.058;2022-11-20T07:42:38;12.15;;;3.85;;
71125;SDS011;58785;55.566;38.058;2022-11-20T07:45:03;11.93;;;3.27;;
71125;SDS011;58785;55.566;38.058;2022-11-20T07:47:34;12.10;;;3.67;;
71125;SDS011;58785;55.566;38.058;2022-11-20T07:50:01;12.63;;;4.45;;
71125;SDS011;58785;55.566;38.058;2022-11-20T07:52:27;10.30;;;3.50;;
71125;SDS011;58785;55.566;38.058;2022-11-20T07:54:54;13.23;;;4.38;;
71125;SDS011;58785;55.566;38.058;2022-11-20T07:57:19;11.88;;;5.30;;
71125;SDS011;58785;55.566;38.058;2022-11-20T07:59:45;13.00;;;4.67;;
71125;SDS011;58785;55.566;38.058;2022-11-20T08:02:11;14.98;;;6.32;;
71125;SDS011;58785;55.566;38.058;2022-11-20T08:04:36;16.73;;;6.53;;
71125;SDS011;58785;55.566;38.058;2022-11-20T08:07:02;15.97;;;6.03;;
71125;SDS011;58785;55.566;38.058;2022-11-20T08:09:27;11.80;;;4.53;;
71125;SDS011;58785;55.566;38.058;2022-11-20T08:11:54;11.05;;;4.40;;
71125;SDS011;58785;55.566;38.058;2022-11-20T08:14:38;10.13;;;3.70;;
71125;SDS011;58785;55.566;38.058;2022-11-20T08:17:03;10.43;;;3.58;;
71125;SDS011;58785;55.566;38.058;2022-11-20T08:19:29;8.97;;;3.50;;
71125;SDS011;58785;55.566;38.058;2022-11-20T08:21:55;8.50;;;3.03;;
71125;SDS011;58785;55.566;38.058;2022-11-20T08:24:21;9.57;;;3.70;;
71125;SDS011;58785;55.566;38.058;2022-11-20T08:26:46;10.95;;;3.45;;
71125;SDS011;58785;55.566;38.058;2022-11-20T08:29:12;11.77;;;3.80;;
71125;SDS011;58785;55.566;38.058;2022-11-20T08:31:37;11.80;;;3.93;;
71125;SDS011;58785;55.566;38.058;2022-11-20T08:34:03;11.63;;;4.03;;
71125;SDS011;58785;55.566;38.058;2022-11-20T08:36:32;10.83;;;3.87;;
71125;SDS011;58785;55.566;38.058;2022-11-20T08:38:59;11.15;;;3.83;;
71125;SDS011;58785;55.566;38.058;2022-11-20T08:41:24;11.50;;;3.83;;
71125;SDS011;58785;55.566;38.058;2022-11-20T08:43:54;10.13;;;4.07;;
71125;SDS011;58785;55.566;38.058;2022-11-20T08:46:21;9.88;;;3.58;;
71125;SDS011;58785;55.566;38.058;2022-11-20T08:48:48;13.10;;;4.38;;
71125;SDS011;58785;55.566;38.058;2022-11-20T08:51:14;12.10;;;4.00;;
71125;SDS011;58785;55.566;38.058;2022-11-20T08:53:41;13.52;;;4.32;;
71125;SDS011;58785;55.566;38.058;2022-11-20T08:56:07;13.38;;;4.30;;
71125;SDS011;58785;55.566;38.058;2022-11-20T08:58:32;11.17;;;4.07;;
71125;SDS011;58785;55.566;38.058;2022-11-20T09:00:58;12.02;;;4.28;;
71125;SDS011;58785;55.566;38.058;2022-11-20T09:03:24;13.30;;;4.33;;
71125;SDS011;58785;55.566;38.058;2022-11-20T09:05:56;12.52;;;4.53;;
71125;SDS011;58785;55.566;38.058;2022-11-20T09:08:23;15.23;;;5.38;;
71125;SDS011;58785;55.566;38.058;2022-11-20T09:10:52;17.90;;;6.27;;
71125;SDS011;58785;55.566;38.058;2022-11-20T09:13:18;17.27;;;6.70;;
71125;SDS011;58785;55.566;38.058;2022-11-20T09:15:44;15.75;;;5.55;;
71125;SDS011;58785;55.566;38.058;2022-11-20T09:18:10;13.73;;;6.03;;
71125;SDS011;58785;55.566;38.058;2022-11-20T09:20:36;19.73;;;5.67;;
71125;SDS011;58785;55.566;38.058;2022-11-20T09:23:01;15.52;;;5.13;;
71125;SDS011;58785;55.566;38.058;2022-11-20T09:25:27;15.37;;;5.60;;
71125;SDS011;58785;55.566;38.058;2022-11-20T09:27:58;17.73;;;5.90;;
71125;SDS011;58785;55.566;38.058;2022-11-20T09:30:25;15.35;;;5.68;;
71125;SDS011;58785;55.566;38.058;2022-11-20T09:32:51;12.40;;;5.07;;
71125;SDS011;58785;55.566;38.058;2022-11-20T09:35:17;14.90;;;5.30;;
71125;SDS011;58785;55.566;38.058;2022-11-20T09:37:43;16.33;;;5.83;;
71125;SDS011;58785;55.566;38.058;2022-11-20T09:40:17;16.77;;;5.55;;
71125;SDS011;58785;55.566;38.058;2022-11-20T09:54:18;12.63;;;4.93;;
71125;SDS011;58785;55.566;38.058;2022-11-20T09:59:56;16.40;;;5.78;;
71125;SDS011;58785;55.566;38.058;2022-11-20T10:02:29;20.58;;;7.60;;
71125;SDS011;58785;55.566;38.058;2022-11-20T10:13:28;16.40;;;6.28;;
71125;SDS011;58785;55.566;38.058;2022-11-20T10:19:04;22.07;;;7.23;;
71125;SDS011;58785;55.566;38.058;2022-11-20T10:30:03;20.67;;;6.53;;
71125;SDS011;58785;55.566;38.058;2022-11-20T10:32:42;20.57;;;7.43;;
71125;SDS011;58785;55.566;38.058;2022-11-20T10:37:41;24.42;;;7.93;;
71125;SDS011;58785;55.566;38.058;2022-11-20T10:40:21;19.80;;;7.75;;
71125;SDS011;58785;55.566;38.058;2022-11-20T10:48:28;17.08;;;6.88;;
71125;SDS011;58785;55.566;38.058;2022-11-20T11:01:52;21.42;;;8.70;;
71125;SDS011;58785;55.566;38.058;2022-11-20T11:04:23;19.73;;;6.60;;
71125;SDS011;58785;55.566;38.058;2022-11-20T11:06:54;19.52;;;6.72;;
71125;SDS011;58785;55.566;38.058;2022-11-20T11:09:32;23.17;;;7.93;;
71125;SDS011;58785;55.566;38.058;2022-11-20T11:12:05;22.33;;;7.27;;
71125;SDS011;58785;55.566;38.058;2022-11-20T11:14:41;20.55;;;6.65;;
71125;SDS011;58785;55.566;38.058;2022-11-20T11:17:22;22.95;;;7.55;;
71125;SDS011;58785;55.566;38.058;2022-11-20T11:22:23;23.07;;;7.90;;
71125;SDS011;58785;55.566;38.058;2022-11-20T11:24:52;23.55;;;8.45;;
71125;SDS011;58785;55.566;38.058;2022-11-20T11:27:18;26.07;;;11.00;;
71125;SDS011;58785;55.566;38.058;2022-11-20T11:29:45;21.50;;;7.88;;
71125;SDS011;58785;55.566;38.058;2022-11-20T11:32:12;23.33;;;7.75;;
71125;SDS011;58785;55.566;38.058;2022-11-20T11:34:39;38.27;;;13.83;;
71125;SDS011;58785;55.566;38.058;2022-11-20T11:37:09;36.38;;;12.43;;
71125;SDS011;58785;55.566;38.058;2022-11-20T11:39:46;42.95;;;16.65;;
71125;SDS011;58785;55.566;38.058;2022-11-20T11:42:16;24.95;;;8.80;;
71125;SDS011;58785;55.566;38.058;2022-11-20T11:44:45;25.17;;;8.47;;
71125;SDS011;58785;55.566;38.058;2022-11-20T11:52:47;24.88;;;9.00;;
71125;SDS011;58785;55.566;38.058;2022-11-20T12:01:00;25.45;;;8.88;;
71125;SDS011;58785;55.566;38.058;2022-11-20T12:03:39;29.70;;;11.38;;
71125;SDS011;58785;55.566;38.058;2022-11-20T12:06:14;23.65;;;8.82;;
71125;SDS011;58785;55.566;38.058;2022-11-20T12:08:53;27.23;;;10.20;;
71125;SDS011;58785;55.566;38.058;2022-11-20T12:14:21;27.58;;;10.82;;
71125;SDS011;58785;55.566;38.058;2022-11-20T12:17:04;24.70;;;9.48;;
71125;SDS011;58785;55.566;38.058;2022-11-20T12:19:30;27.48;;;8.95;;
71125;SDS011;58785;55.566;38.058;2022-11-20T12:27:25;28.80;;;8.18;;
71125;SDS011;58785;55.566;38.058;2022-11-20T12:30:19;27.27;;;9.15;;
71125;SDS011;58785;55.566;38.058;2022-11-20T13:00:20;27.08;;;9.55;;
71125;SDS011;58785;55.566;38.058;2022-11-20T13:11:03;19.40;;;7.33;;
71125;SDS011;58785;55.566;38.058;2022-11-20T13:16:24;29.02;;;7.85;;
71125;SDS011;58785;55.566;38.058;2022-11-20T13:19:01;26.00;;;7.57;;
71125;SDS011;58785;55.566;38.058;2022-11-20T13:21:44;19.83;;;7.88;;
71125;SDS011;58785;55.566;38.058;2022-11-20T13:24:25;26.63;;;8.53;;
71125;SDS011;58785;55.566;38.058;2022-11-20T13:29:44;28.92;;;9.50;;
71125;SDS011;58785;55.566;38.058;2022-11-20T13:32:17;24.05;;;8.98;;
71125;SDS011;58785;55.566;38.058;2022-11-20T13:34:56;20.95;;;8.13;;
71125;SDS011;58785;55.566;38.058;2022-11-20T13:37:44;34.47;;;15.07;;
71125;SDS011;58785;55.566;38.058;2022-11-20T13:42:39;32.55;;;14.70;;
71125;SDS011;58785;55.566;38.058;2022-11-20T13:45:11;26.27;;;9.90;;
71125;SDS011;58785;55.566;38.058;2022-11-20T13:47:49;25.45;;;9.27;;
71125;SDS011;58785;55.566;38.058;2022-11-20T13:50:15;35.23;;;9.27;;
71125;SDS011;58785;55.566;38.058;2022-11-20T13:52:55;28.20;;;8.35;;
71125;SDS011;58785;55.566;38.058;2022-11-20T14:03:42;28.10;;;9.47;;
71125;SDS011;58785;55.566;38.058;2022-11-20T14:06:13;47.80;;;17.45;;
71125;SDS011;58785;55.566;38.058;2022-11-20T14:08:48;26.02;;;9.23;;
71125;SDS011;58785;55.566;38.058;2022-11-20T14:11:22;28.35;;;8.60;;
71125;SDS011;58785;55.566;38.058;2022-11-20T14:14:10;26.90;;;9.60;;
71125;SDS011;58785;55.566;38.058;2022-11-20T14:16:40;25.00;;;8.07;;
71125;SDS011;58785;55.566;38.058;2022-11-20T14:21:53;26.95;;;9.35;;
71125;SDS011;58785;55.566;38.058;2022-11-20T14:24:31;28.58;;;9.15;;
71125;SDS011;58785;55.566;38.058;2022-11-20T14:26:57;37.60;;;10.30;;
71125;SDS011;58785;55.566;38.058;2022-11-20T14:29:27;50.50;;;16.58;;
71125;SDS011;58785;55.566;38.058;2022-11-20T14:31:58;36.50;;;10.05;;
71125;SDS011;58785;55.566;38.058;2022-11-20T14:34:31;24.33;;;7.17;;
71125;SDS011;58785;55.566;38.058;2022-11-20T14:37:03;21.20;;;7.70;;
71125;SDS011;58785;55.566;38.058;2022-11-20T14:39:35;31.65;;;10.20;;
71125;SDS011;58785;55.566;38.058;2022-11-20T14:42:18;32.13;;;10.05;;
71125;SDS011;58785;55.566;38.058;2022-11-20T14:44:47;35.78;;;11.98;;
71125;SDS011;58785;55.566;38.058;2022-11-20T14:47:15;35.00;;;12.83;;
71125;SDS011;58785;55.566;38.058;2022-11-20T14:49:45;43.00;;;15.60;;
71125;SDS011;58785;55.566;38.058;2022-11-20T14:54:46;25.13;;;9.55;;
71125;SDS011;58785;55.566;38.058;2022-11-20T15:02:44;28.08;;;9.63;;
71125;SDS011;58785;55.566;38.058;2022-11-20T15:05:11;27.90;;;10.02;;
71125;SDS011;58785;55.566;38.058;2022-11-20T15:07:39;23.70;;;9.68;;
71125;SDS011;58785;55.566;38.058;2022-11-20T15:10:26;29.70;;;8.88;;
71125;SDS011;58785;55.566;38.058;2022-11-20T15:12:53;34.43;;;10.50;;
71125;SDS011;58785;55.566;38.058;2022-11-20T15:16:17;36.88;;;11.20;;
71125;SDS011;58785;55.566;38.058;2022-11-20T15:18:13;94.13;;;28.65;;
71125;SDS011;58785;55.566;38.058;2022-11-20T15:20:40;80.03;;;27.15;;
71125;SDS011;58785;55.566;38.058;2022-11-20T15:23:13;54.33;;;15.48;;
71125;SDS011;58785;55.566;38.058;2022-11-20T15:25:42;26.13;;;9.33;;
71125;SDS011;58785;55.566;38.058;2022-11-20T15:28:13;28.17;;;8.57;;
71125;SDS011;58785;55.566;38.058;2022-11-20T15:31:01;24.05;;;7.95;;
71125;SDS011;58785;55.566;38.058;2022-11-20T15:33:28;23.20;;;8.57;;
71125;SDS011;58785;55.566;38.058;2022-11-20T15:35:56;26.30;;;9.13;;
71125;SDS011;58785;55.566;38.058;2022-11-20T15:38:22;33.07;;;9.60;;
71125;SDS011;58785;55.566;38.058;2022-11-20T15:40:50;27.85;;;9.93;;
71125;SDS011;58785;55.566;38.058;2022-11-20T15:43:16;33.83;;;9.50;;
71125;SDS011;58785;55.566;38.058;2022-11-20T15:45:49;31.25;;;10.10;;
71125;SDS011;58785;55.566;38.058;2022-11-20T15:48:24;40.47;;;11.73;;
71125;SDS011;58785;55.566;38.058;2022-11-20T15:53:55;33.92;;;10.65;;
71125;SDS011;58785;55.566;38.058;2022-11-20T15:56:21;27.08;;;9.45;;
71125;SDS011;58785;55.566;38.058;2022-11-20T15:58:47;32.75;;;9.57;;
71125;SDS011;58785;55.566;38.058;2022-11-20T16:01:17;33.05;;;11.25;;
71125;SDS011;58785;55.566;38.058;2022-11-20T16:03:45;27.70;;;10.33;;
71125;SDS011;58785;55.566;38.058;2022-11-20T16:06:11;33.70;;;10.70;;
71125;SDS011;58785;55.566;38.058;2022-11-20T16:08:37;28.98;;;9.30;;
71125;SDS011;58785;55.566;38.058;2022-11-20T16:11:03;25.73;;;8.87;;
71125;SDS011;58785;55.566;38.058;2022-11-20T16:13:30;31.05;;;10.23;;
71125;SDS011;58785;55.566;38.058;2022-11-20T16:18:44;28.65;;;10.27;;
71125;SDS011;58785;55.566;38.058;2022-11-20T16:21:13;29.07;;;9.70;;
71125;SDS011;58785;55.566;38.058;2022-11-20T16:23:39;30.55;;;10.55;;
71125;SDS011;58785;55.566;38.058;2022-11-20T16:26:11;30.02;;;9.65;;
71125;SDS011;58785;55.566;38.058;2022-11-20T16:28:38;33.20;;;9.57;;
71125;SDS011;58785;55.566;38.058;2022-11-20T16:31:22;30.93;;;8.97;;
71125;SDS011;58785;55.566;38.058;2022-11-20T16:33:49;30.23;;;10.07;;
71125;SDS011;58785;55.566;38.058;2022-11-20T16:36:19;27.02;;;10.05;;
71125;SDS011;58785;55.566;38.058;2022-11-20T16:38:46;34.05;;;9.38;;
71125;SDS011;58785;55.566;38.058;2022-11-20T16:41:11;22.73;;;7.77;;
71125;SDS011;58785;55.566;38.058;2022-11-20T16:43:47;22.15;;;8.07;;
71125;SDS011;58785;55.566;38.058;2022-11-20T16:46:15;25.52;;;7.80;;
71125;SDS011;58785;55.566;38.058;2022-11-20T16:48:52;28.92;;;8.82;;
71125;SDS011;58785;55.566;38.058;2022-11-20T16:51:25;22.75;;;6.78;;
71125;SDS011;58785;55.566;38.058;2022-11-20T16:53:52;19.40;;;6.87;;
71125;SDS011;58785;55.566;38.058;2022-11-20T16:56:22;29.20;;;8.27;;
71125;SDS011;58785;55.566;38.058;2022-11-20T16:58:52;23.30;;;7.68;;
71125;SDS011;58785;55.566;38.058;2022-11-20T17:01:20;25.60;;;7.45;;
71125;SDS011;58785;55.566;38.058;2022-11-20T17:03:58;26.35;;;8.60;;
71125;SDS011;58785;55.566;38.058;2022-11-20T17:06:28;24.33;;;9.80;;